Time;durP1;ratioP1;P1;durP2;ratioP2;P2;SDS_P1;SDS_P2;PMS_P1;PMS_P2;Temp;Humidity;BMP_temperature;BMP_pressure;BME280_temperature;BME280_humidity;BME280_pressure;Samples;Min_cycle;Max_cycle;Signal;HPM_P1;HPM_P2
2022/12/10 00:02:19;;;;;;;22.47;20.17;;;;;;;1.81;100.00;99141.72;5069543;28;20197;-73
2022/12/10 00:04:44;;;;;;;21.53;19.33;;;;;;;1.80;100.00;99145.13;5066562;28;20190;-73
2022/12/10 00:07:09;;;;;;;22.77;20.43;;;;;;;1.80;100.00;99150.22;5052575;28;20185;-73
2022/12/10 00:09:35;;;;;;;21.53;19.33;;;;;;;1.78;100.00;99150.19;5066597;28;20205;-73
2022/12/10 00:12:00;;;;;;;21.97;19.70;;;;;;;1.77;100.00;99150.19;5066903;28;20284;-74
2022/12/10 00:14:25;;;;;;;23.90;21.37;;;;;;;1.77;100.00;99163.78;5064441;28;20182;-73
2022/12/10 00:16:51;;;;;;;22.87;20.47;;;;;;;1.75;100.00;99160.34;5065663;28;20270;-72
2022/12/10 00:19:16;;;;;;;24.23;21.47;;;;;;;1.72;100.00;99159.47;5065717;28;20619;-73
2022/12/10 00:21:43;;;;;;;24.30;21.43;;;;;;;1.70;100.00;99159.47;5067282;28;20212;-73
2022/12/10 00:24:09;;;;;;;22.30;20.10;;;;;;;1.72;100.00;99162.03;5066159;28;20198;-73
2022/12/10 00:26:37;;;;;;;23.03;20.57;;;;;;;1.73;100.00;99159.53;5072407;28;20174;-73
2022/12/10 00:29:04;;;;;;;23.20;20.80;;;;;;;1.73;100.00;99163.75;5067786;28;20193;-74
2022/12/10 00:31:32;;;;;;;23.57;21.07;;;;;;;1.68;100.00;99161.16;5067437;28;20350;-72
2022/12/10 00:34:00;;;;;;;23.43;20.90;;;;;;;1.63;100.00;99153.47;5063875;28;20206;-73
2022/12/10 00:36:28;;;;;;;23.33;20.93;;;;;;;1.62;100.00;99146.66;5067465;28;20182;-74
2022/12/10 00:38:54;;;;;;;23.80;21.30;;;;;;;1.67;100.00;99154.34;5047521;28;20193;-73
2022/12/10 00:41:20;;;;;;;23.80;21.30;;;;;;;1.61;100.00;99155.16;5069381;28;20558;-72
2022/12/10 00:43:46;;;;;;;23.60;21.13;;;;;;;1.61;100.00;99154.28;5066883;28;20292;-73
2022/12/10 00:46:13;;;;;;;23.87;21.53;;;;;;;1.61;100.00;99159.38;5064885;28;20281;-73
2022/12/10 00:48:38;;;;;;;23.87;21.37;;;;;;;1.59;100.00;99153.44;5064791;28;21006;-75
2022/12/10 00:51:08;;;;;;;23.43;21.03;;;;;;;1.57;100.00;99163.59;5053041;28;20208;-75
2022/12/10 00:53:35;;;;;;;23.60;21.17;;;;;;;1.55;100.00;99154.25;5063802;28;20686;-74
2022/12/10 00:56:01;;;;;;;23.97;21.50;;;;;;;1.54;100.00;99162.72;5053270;28;20193;-74
2022/12/10 00:58:29;;;;;;;23.77;21.37;;;;;;;1.51;100.00;99166.97;5047471;28;20181;-72
2022/12/10 01:00:54;;;;;;;23.07;20.77;;;;;;;1.51;100.00;99168.66;5051460;28;20188;-73
2022/12/10 01:03:20;;;;;;;24.53;21.90;;;;;;;1.51;100.00;99174.59;5069070;28;20912;-73
2022/12/10 01:05:45;;;;;;;25.60;22.83;;;;;;;1.52;100.00;99175.44;5051314;28;20268;-73
2022/12/10 01:08:11;;;;;;;24.00;21.40;;;;;;;1.57;100.00;99176.34;5065433;28;20181;-73
2022/12/10 01:10:37;;;;;;;24.73;21.90;;;;;;;1.56;100.00;99182.28;5052827;28;20317;-74
2022/12/10 01:13:03;;;;;;;25.00;22.40;;;;;;;1.52;100.00;99178.88;5066210;28;20594;-74
2022/12/10 01:15:28;;;;;;;24.50;21.90;;;;;;;1.52;100.00;99183.97;5065620;28;20174;-74
2022/12/10 01:17:54;;;;;;;25.67;22.50;;;;;;;1.50;100.00;99187.34;5065486;28;20516;-74
2022/12/10 01:20:19;;;;;;;24.47;21.80;;;;;;;1.57;100.00;99188.28;5048865;28;20174;-74
2022/12/10 01:22:45;;;;;;;24.63;21.97;;;;;;;1.54;100.00;99190.78;5070870;28;20198;-76
2022/12/10 01:25:10;;;;;;;22.93;20.43;;;;;;;1.52;100.00;99194.16;5085659;28;20166;-76
2022/12/10 01:27:35;;;;;;;23.90;20.80;;;;;;;1.52;100.00;99193.28;5082408;28;20213;-73
2022/12/10 01:30:01;;;;;;;24.43;21.77;;;;;;;1.51;100.00;99201.81;5055254;28;20221;-74
2022/12/10 01:32:26;;;;;;;24.83;21.40;;;;;;;1.52;100.00;99199.28;5066868;28;20233;-75
2022/12/10 01:34:51;;;;;;;24.07;21.43;;;;;;;1.50;100.00;99195.00;5064496;28;20186;-75
2022/12/10 01:37:16;;;;;;;25.43;21.60;;;;;;;1.50;100.00;99187.34;5065526;28;20264;-73
2022/12/10 01:39:42;;;;;;;25.73;21.00;;;;;;;1.46;100.00;99194.09;5064631;28;20566;-74
2022/12/10 01:42:11;;;;;;;24.13;21.60;;;;;;;1.46;100.00;99194.09;5068905;28;21064;-74
2022/12/10 01:44:42;;;;;;;27.73;22.70;;;;;;;1.50;100.00;99187.34;5062768;28;20251;-73
2022/12/10 01:47:09;;;;;;;25.73;22.93;;;;;;;1.51;100.00;99196.72;5078564;28;20259;-73
2022/12/10 01:49:37;;;;;;;24.97;22.07;;;;;;;1.47;100.00;99193.25;5064348;28;20290;-73
2022/12/10 01:52:05;;;;;;;25.20;22.47;;;;;;;1.48;100.00;99191.56;5064984;28;20372;-73
2022/12/10 01:54:36;;;;;;;24.23;21.63;;;;;;;1.46;100.00;99195.81;5068660;28;20276;-74
2022/12/10 01:57:22;;;;;;;25.90;21.93;;;;;;;1.45;100.00;99200.03;5058900;28;20660;-73
2022/12/10 02:00:00;;;;;;;24.70;22.10;;;;;;;1.42;100.00;99204.25;5065269;28;22155;-74
2022/12/10 02:02:42;;;;;;;25.20;21.50;;;;;;;1.42;100.00;99200.03;5063960;28;20695;-73
2022/12/10 02:05:23;;;;;;;24.30;21.73;;;;;;;1.41;100.00;99200.84;5049530;28;20199;-72
2022/12/10 02:08:03;;;;;;;24.33;21.83;;;;;;;1.44;100.00;99208.50;5062324;28;20221;-75
2022/12/10 02:10:48;;;;;;;26.27;22.40;;;;;;;1.44;100.00;99205.13;5065343;28;20278;-74
2022/12/10 02:13:23;;;;;;;23.97;21.37;;;;;;;1.45;100.00;99194.09;5077624;28;20701;-73
2022/12/10 02:15:57;;;;;;;24.67;22.17;;;;;;;1.43;100.00;99205.97;5062442;28;20668;-74
2022/12/10 02:18:35;;;;;;;25.40;22.77;;;;;;;1.41;100.00;99188.13;5063077;28;20190;-73
2022/12/10 02:21:08;;;;;;;24.33;21.70;;;;;;;1.40;100.00;99182.97;5080789;28;20277;-73
2022/12/10 02:23:39;;;;;;;24.07;21.23;;;;;;;1.37;100.00;99186.34;5071014;28;20394;-73
2022/12/10 02:26:18;;;;;;;24.27;21.67;;;;;;;1.36;100.00;99179.56;5062444;28;20218;-73
2022/12/10 02:28:52;;;;;;;24.30;21.70;;;;;;;1.34;100.00;99191.41;5047857;28;20245;-72
2022/12/10 02:31:22;;;;;;;24.33;21.80;;;;;;;1.31;100.00;99184.59;5051801;28;20224;-72
2022/12/10 02:33:53;;;;;;;25.87;22.47;;;;;;;1.33;100.00;99184.59;5076897;28;20592;-73
2022/12/10 02:36:21;;;;;;;23.60;20.90;;;;;;;1.31;100.00;99176.09;5039707;28;20218;-73
2022/12/10 02:38:49;;;;;;;25.73;22.87;;;;;;;1.31;100.00;99171.00;5050466;28;20186;-73
2022/12/10 02:41:19;;;;;;;25.60;21.73;;;;;;;1.33;100.00;99182.06;5044648;28;20200;-73
2022/12/10 02:43:48;;;;;;;25.10;21.60;;;;;;;1.33;100.00;99182.06;5044771;28;20201;-75
2022/12/10 02:46:13;;;;;;;24.50;21.83;;;;;;;1.33;100.00;99175.28;5040974;28;20558;-72
2022/12/10 02:48:40;;;;;;;23.67;21.17;;;;;;;1.33;100.00;99171.88;5062676;28;20198;-73
2022/12/10 02:51:05;;;;;;;25.20;22.13;;;;;;;1.30;100.00;99171.81;5065585;28;20202;-73
2022/12/10 02:53:30;;;;;;;24.27;21.53;;;;;;;1.28;100.00;99174.38;5065502;28;20213;-73
2022/12/10 02:56:34;;;;;;;24.67;22.07;;;;;;;1.26;100.00;99181.13;5063460;28;20191;-73
2022/12/10 02:59:33;;;;;;;25.37;22.47;;;;;;;1.25;100.00;99183.69;5070483;28;20189;-73
2022/12/10 03:02:24;;;;;;;24.00;21.30;;;;;;;1.24;100.00;99180.25;5062474;28;20218;-73
2022/12/10 03:05:11;;;;;;;23.37;20.50;;;;;;;1.21;100.00;99187.91;5044883;28;20200;-73
2022/12/10 03:07:46;;;;;;;23.87;21.33;;;;;;;1.23;100.00;99195.56;5059549;28;20202;-74
2022/12/10 03:10:20;;;;;;;23.97;21.40;;;;;;;1.23;100.00;99196.38;5063081;28;20239;-75
2022/12/10 03:12:50;;;;;;;24.97;21.80;;;;;;;1.21;100.00;99198.09;5069075;28;20309;-73
2022/12/10 03:15:19;;;;;;;25.50;22.80;;;;;;;1.18;100.00;99198.91;5063342;28;20193;-73
2022/12/10 03:17:46;;;;;;;25.27;22.57;;;;;;;1.20;100.00;99201.47;5071097;28;20570;-73
2022/12/10 03:20:14;;;;;;;24.90;22.23;;;;;;;1.19;100.00;99198.06;5063721;28;20185;-73
2022/12/10 03:22:43;;;;;;;24.63;21.93;;;;;;;1.16;100.00;99197.19;5061697;28;20858;-73
2022/12/10 03:25:12;;;;;;;25.27;21.87;;;;;;;1.16;100.00;99197.19;5078745;28;20182;-73
2022/12/10 03:27:40;;;;;;;25.73;21.70;;;;;;;1.11;100.00;99192.03;5062503;28;20438;-74
2022/12/10 03:30:07;;;;;;;23.77;21.27;;;;;;;1.11;100.00;99201.34;5066446;28;20205;-75
2022/12/10 03:32:33;;;;;;;24.53;21.90;;;;;;;1.13;100.00;99200.56;5064442;28;20205;-74
2022/12/10 03:35:01;;;;;;;25.63;22.80;;;;;;;1.13;100.00;99199.69;5061232;28;20185;-74
2022/12/10 03:37:28;;;;;;;24.87;22.23;;;;;;;1.13;100.00;99208.19;5062713;28;20285;-72
2022/12/10 03:39:55;;;;;;;24.83;22.23;;;;;;;1.15;100.00;99216.69;5065348;28;20640;-73
2022/12/10 03:42:21;;;;;;;25.67;22.83;;;;;;;1.17;100.00;99216.72;5090413;28;20202;-75
2022/12/10 03:44:50;;;;;;;25.50;22.80;;;;;;;1.16;100.00;99213.31;5091462;28;20182;-74
2022/12/10 03:47:15;;;;;;;24.67;21.97;;;;;;;1.14;100.00;99204.78;5059278;28;20191;-72
2022/12/10 03:49:42;;;;;;;25.00;22.37;;;;;;;1.16;100.00;99207.38;5059400;28;20202;-72
2022/12/10 03:52:08;;;;;;;28.10;23.63;;;;;;;1.17;100.00;99209.09;5060542;28;20214;-72
2022/12/10 03:54:33;;;;;;;27.27;23.40;;;;;;;1.14;100.00;99212.44;5060195;28;20602;-74
2022/12/10 03:56:58;;;;;;;27.13;22.67;;;;;;;1.16;100.00;99215.00;5057915;28;20223;-72
2022/12/10 03:59:23;;;;;;;26.03;22.37;;;;;;;1.12;100.00;99211.59;5060406;28;20783;-73
2022/12/10 04:01:49;;;;;;;25.83;22.80;;;;;;;1.09;100.00;99216.63;5059534;28;20194;-73
2022/12/10 04:04:14;;;;;;;24.93;22.23;;;;;;;1.09;100.00;99220.84;5057827;28;20186;-72
2022/12/10 04:06:40;;;;;;;26.63;22.17;;;;;;;1.12;100.00;99226.88;5067706;28;20208;-72
2022/12/10 04:09:06;;;;;;;26.33;22.70;;;;;;;1.08;100.00;99225.13;5060704;28;20212;-71
2022/12/10 04:11:32;;;;;;;24.77;22.10;;;;;;;1.10;100.00;99220.03;5066165;28;20191;-73
2022/12/10 04:16:41;;;;;;;25.87;23.13;;;;;;;1.12;100.00;99215.81;5064256;28;20227;-72
2022/12/10 04:19:11;;;;;;;24.17;21.57;;;;;;;1.10;100.00;99212.38;5064226;28;20573;-73
2022/12/10 04:27:36;;;;;;;28.43;22.70;;;;;;;1.18;100.00;99221.00;5057911;28;20193;-72
2022/12/10 04:30:05;;;;;;;27.27;23.50;;;;;;;1.15;100.00;99220.94;5061726;28;20306;-73
2022/12/10 04:32:31;;;;;;;25.03;21.70;;;;;;;1.13;100.00;99214.97;5062662;28;20210;-73
2022/12/10 04:34:56;;;;;;;26.77;23.70;;;;;;;1.13;100.00;99223.50;5061977;28;20190;-72
2022/12/10 04:37:22;;;;;;;26.03;22.63;;;;;;;1.09;100.00;99223.41;5065187;28;20182;-72
2022/12/10 04:39:49;;;;;;;25.57;22.47;;;;;;;1.09;100.00;99224.28;5057472;28;20603;-72
2022/12/10 04:42:15;;;;;;;25.87;22.60;;;;;;;1.06;100.00;99214.88;5058162;28;20197;-73
2022/12/10 04:44:40;;;;;;;25.87;23.03;;;;;;;1.08;100.00;99222.56;5061654;28;20278;-73
2022/12/10 04:47:07;;;;;;;26.33;23.37;;;;;;;1.06;100.00;99219.13;5068610;28;20199;-72
2022/12/10 04:49:32;;;;;;;27.77;24.17;;;;;;;1.06;100.00;99214.03;5064676;28;20224;-72
2022/12/10 04:51:58;;;;;;;28.43;24.67;;;;;;;1.08;100.00;99208.94;5055642;28;22213;-74
2022/12/10 04:54:23;;;;;;;27.30;23.53;;;;;;;1.04;100.00;99216.59;5055479;28;20242;-73
2022/12/10 04:56:49;;;;;;;29.97;24.93;;;;;;;1.06;100.00;99211.50;5062843;28;20185;-72
2022/12/10 04:59:16;;;;;;;30.43;25.57;;;;;;;1.05;100.00;99217.44;5060238;28;20206;-74
2022/12/10 05:01:41;;;;;;;27.97;24.67;;;;;;;1.04;100.00;99213.16;5042536;28;20190;-74
2022/12/10 05:04:09;;;;;;;29.43;26.07;;;;;;;1.05;100.00;99227.63;5060830;28;20267;-74
2022/12/10 05:06:34;;;;;;;29.30;25.53;;;;;;;1.00;100.00;99225.03;5059599;28;20198;-73
2022/12/10 05:09:00;;;;;;;27.97;24.23;;;;;;;1.00;100.00;99232.66;5064443;28;20690;-72
2022/12/10 05:11:28;;;;;;;29.50;25.23;;;;;;;1.00;100.00;99237.75;5063744;28;20268;-73
2022/12/10 05:13:55;;;;;;;29.27;26.13;;;;;;;0.99;100.00;99240.25;5063438;28;20216;-76
2022/12/10 05:16:22;;;;;;;30.13;26.13;;;;;;;1.00;100.00;99241.97;5047360;28;20191;-75
2022/12/10 05:18:48;;;;;;;27.93;24.93;;;;;;;0.95;100.00;99243.63;5058629;28;20190;-74
2022/12/10 05:21:15;;;;;;;31.43;26.53;;;;;;;0.94;100.00;99244.47;5064584;28;20243;-75
2022/12/10 05:23:43;;;;;;;30.23;27.03;;;;;;;0.92;100.00;99239.34;5064715;28;20217;-75
2022/12/10 05:26:13;;;;;;;30.37;26.27;;;;;;;0.87;100.00;99240.97;5062001;28;20212;-75
2022/12/10 05:28:47;;;;;;;30.73;26.43;;;;;;;0.91;100.00;99246.13;5063259;28;20218;-75
2022/12/10 05:31:15;;;;;;;31.77;26.67;;;;;;;0.91;100.00;99242.72;5062712;28;20255;-75
2022/12/10 05:33:41;;;;;;;31.37;25.90;;;;;;;0.90;100.00;99246.13;5062469;28;21207;-75
2022/12/10 05:36:07;;;;;;;31.70;28.00;;;;;;;0.90;100.00;99253.78;5056400;28;20189;-75
2022/12/10 05:38:34;;;;;;;34.10;26.77;;;;;;;0.88;100.00;99263.91;5042855;28;20193;-74
2022/12/10 05:41:08;;;;;;;32.53;27.63;;;;;;;0.92;100.00;99262.25;5060329;28;20184;-74
2022/12/10 05:43:34;;;;;;;34.77;26.87;;;;;;;0.93;100.00;99258.03;5060120;28;20235;-76
2022/12/10 05:46:05;;;;;;;32.37;27.83;;;;;;;0.90;100.00;99261.41;5060595;28;20649;-75
2022/12/10 05:48:31;;;;;;;32.13;26.90;;;;;;;0.88;100.00;99266.47;5058960;28;20188;-74
2022/12/10 05:50:57;;;;;;;32.77;27.23;;;;;;;0.88;100.00;99253.72;5041542;28;20229;-75
2022/12/10 05:53:23;;;;;;;31.70;27.10;;;;;;;0.88;100.00;99260.53;5059501;28;20322;-74
2022/12/10 05:55:59;;;;;;;34.50;28.53;;;;;;;0.90;100.00;99258.88;5065184;28;20198;-75
2022/12/10 05:58:27;;;;;;;32.00;26.70;;;;;;;0.85;100.00;99263.88;5094531;28;20280;-74
2022/12/10 06:00:52;;;;;;;32.47;27.17;;;;;;;0.83;100.00;99265.53;5089583;28;20208;-75
2022/12/10 06:03:17;;;;;;;32.37;28.07;;;;;;;0.84;100.00;99251.97;5064096;28;20203;-75
2022/12/10 06:05:43;;;;;;;32.73;27.27;;;;;;;0.84;100.00;99261.31;5065478;28;20193;-75
2022/12/10 06:08:08;;;;;;;32.70;27.40;;;;;;;0.85;100.00;99271.50;5046698;28;20227;-75
2022/12/10 06:10:34;;;;;;;33.77;28.00;;;;;;;0.83;100.00;99278.28;5063070;28;20209;-75
2022/12/10 06:13:00;;;;;;;33.63;27.80;;;;;;;0.81;100.00;99277.41;5061676;28;20201;-74
2022/12/10 06:15:25;;;;;;;33.97;28.20;;;;;;;0.83;100.00;99283.38;5061907;28;20197;-76
2022/12/10 06:17:51;;;;;;;33.93;27.23;;;;;;;0.82;100.00;99284.22;5051524;28;20187;-74
2022/12/10 06:20:16;;;;;;;37.70;29.67;;;;;;;0.83;100.00;99285.91;5057800;28;20181;-75
2022/12/10 06:22:41;;;;;;;37.07;31.47;;;;;;;0.81;100.00;99290.16;5055396;28;20221;-76
2022/12/10 06:25:07;;;;;;;33.53;27.90;;;;;;;0.80;100.00;99290.13;5067732;28;20316;-74
2022/12/10 06:27:32;;;;;;;31.23;27.73;;;;;;;0.80;100.00;99300.31;5055431;28;20657;-75
2022/12/10 06:29:58;;;;;;;34.23;29.77;;;;;;;0.79;100.00;99296.91;5067560;28;20578;-76
2022/12/10 06:32:24;;;;;;;36.83;30.20;;;;;;;0.81;100.00;99317.28;5056223;28;20212;-76
2022/12/10 06:34:49;;;;;;;34.43;29.80;;;;;;;0.79;100.00;99307.09;5075028;28;20561;-73
2022/12/10 06:37:14;;;;;;;35.33;29.00;;;;;;;0.77;100.00;99311.31;5066921;28;20186;-75
2022/12/10 06:39:40;;;;;;;34.03;27.80;;;;;;;0.77;100.00;99324.03;5042348;28;20189;-75
2022/12/10 06:42:05;;;;;;;34.13;28.80;;;;;;;0.74;100.00;99331.63;5054244;28;20209;-75
2022/12/10 06:44:31;;;;;;;36.80;29.07;;;;;;;0.72;100.00;99344.34;5060734;28;20210;-74
2022/12/10 06:46:56;;;;;;;34.93;27.67;;;;;;;0.70;100.00;99330.75;5056261;28;20195;-75
2022/12/10 06:49:22;;;;;;;35.80;28.93;;;;;;;0.73;100.00;99335.00;5072604;28;20212;-75
2022/12/10 06:51:47;;;;;;;34.67;27.93;;;;;;;0.72;100.00;99333.28;5063194;28;21140;-74
2022/12/10 06:54:14;;;;;;;32.83;28.63;;;;;;;0.72;100.00;99346.03;5056602;28;20213;-75
2022/12/10 06:56:39;;;;;;;33.80;29.47;;;;;;;0.73;100.00;99337.56;5057344;28;20190;-74
2022/12/10 06:59:08;;;;;;;33.27;27.67;;;;;;;0.72;100.00;99338.38;5063575;28;20196;-74
2022/12/10 07:01:34;;;;;;;34.47;28.37;;;;;;;0.69;100.00;99341.75;5047664;28;20197;-75
2022/12/10 07:03:59;;;;;;;33.47;28.00;;;;;;;0.69;100.00;99356.16;5054286;28;20284;-76
2022/12/10 07:06:27;;;;;;;32.27;28.00;;;;;;;0.65;100.00;99342.53;5043585;28;20193;-75
2022/12/10 07:08:54;;;;;;;36.73;28.17;;;;;;;0.66;100.00;99340.84;5057026;28;20591;-75
2022/12/10 07:11:22;;;;;;;32.63;28.00;;;;;;;0.67;100.00;99335.78;5071005;28;20189;-74
2022/12/10 07:13:48;;;;;;;32.30;27.60;;;;;;;0.66;100.00;99343.41;5042426;28;20194;-74
2022/12/10 07:16:19;;;;;;;35.07;28.20;;;;;;;0.65;100.00;99339.97;5039138;28;20191;-74
2022/12/10 07:18:45;;;;;;;34.27;27.97;;;;;;;0.70;100.00;99346.03;5059904;28;22021;-75
2022/12/10 07:21:25;;;;;;;34.07;28.50;;;;;;;0.69;100.00;99357.03;5062739;28;20195;-74
2022/12/10 07:23:53;;;;;;;33.33;27.60;;;;;;;0.64;100.00;99351.00;5041694;28;20206;-73
2022/12/10 07:26:19;;;;;;;34.63;28.20;;;;;;;0.65;100.00;99364.59;5048808;28;20196;-74
2022/12/10 07:28:45;;;;;;;32.47;27.90;;;;;;;0.68;100.00;99378.25;5069048;28;20202;-74
2022/12/10 07:31:11;;;;;;;33.80;27.57;;;;;;;0.69;100.00;99374.00;5071172;28;20197;-73
2022/12/10 07:33:36;;;;;;;32.23;27.03;;;;;;;0.72;100.00;99384.22;5061549;28;20436;-74
2022/12/10 07:36:10;;;;;;;32.83;27.43;;;;;;;0.75;100.00;99380.06;5069161;28;20255;-73
2022/12/10 07:38:36;;;;;;;32.97;27.73;;;;;;;0.75;100.00;99385.16;5073428;28;20209;-74
2022/12/10 07:41:03;;;;;;;34.43;27.90;;;;;;;0.72;100.00;99387.66;5052976;28;20305;-75
2022/12/10 07:43:29;;;;;;;31.50;27.77;;;;;;;0.78;100.00;99386.88;5068484;28;20755;-75
2022/12/10 07:45:54;;;;;;;31.03;26.77;;;;;;;0.76;100.00;99389.38;5071720;28;20216;-74
2022/12/10 07:48:20;;;;;;;32.33;26.13;;;;;;;0.74;100.00;99388.53;5056428;28;20604;-75
2022/12/10 07:50:45;;;;;;;32.63;27.03;;;;;;;0.79;100.00;99385.19;5073633;28;20241;-75
2022/12/10 07:53:10;;;;;;;33.83;27.23;;;;;;;0.79;100.00;99380.97;5050544;28;20248;-74
2022/12/10 07:55:36;;;;;;;32.27;27.60;;;;;;;0.80;100.00;99387.78;5050162;28;20195;-76
2022/12/10 07:58:03;;;;;;;36.33;27.33;;;;;;;0.78;100.00;99383.47;5066318;28;20325;-75
2022/12/10 08:00:28;;;;;;;31.33;25.57;;;;;;;0.78;100.00;99383.47;5069182;28;20234;-75
2022/12/10 08:02:53;;;;;;;32.37;26.83;;;;;;;0.76;100.00;99386.84;5063456;28;20211;-74
2022/12/10 08:05:19;;;;;;;33.93;27.80;;;;;;;0.80;100.00;99395.41;5060298;28;20183;-75
2022/12/10 08:07:45;;;;;;;33.90;26.40;;;;;;;0.82;100.00;99392.88;5068553;28;20194;-76
2022/12/10 08:10:10;;;;;;;31.80;26.63;;;;;;;0.82;100.00;99392.88;5080084;28;20198;-74
2022/12/10 08:12:36;;;;;;;29.47;25.13;;;;;;;0.82;100.00;99391.22;5067898;28;21013;-74
2022/12/10 08:15:02;;;;;;;31.37;26.67;;;;;;;0.83;100.00;99387.78;5081945;28;20190;-75
2022/12/10 08:17:27;;;;;;;32.40;25.43;;;;;;;0.83;100.00;99392.06;5106043;28;20165;-75
2022/12/10 08:19:54;;;;;;;32.07;26.83;;;;;;;0.82;100.00;99397.97;5106579;28;20240;-75
2022/12/10 08:22:20;;;;;;;32.77;27.60;;;;;;;0.82;100.00;99401.41;5063137;28;20297;-75
2022/12/10 08:24:45;;;;;;;29.47;24.97;;;;;;;0.83;100.00;99399.69;5065591;28;20622;-76
2022/12/10 08:27:10;;;;;;;29.80;25.83;;;;;;;0.84;100.00;99402.25;5065280;28;20200;-75
2022/12/10 08:29:36;;;;;;;30.73;26.20;;;;;;;0.85;100.00;99408.22;5067165;28;20645;-75
2022/12/10 08:32:01;;;;;;;29.17;25.93;;;;;;;0.85;100.00;99410.78;5065604;28;20216;-76
2022/12/10 08:34:26;;;;;;;31.70;25.90;;;;;;;0.88;100.00;99424.41;5065189;28;20189;-76
2022/12/10 08:36:52;;;;;;;30.80;26.33;;;;;;;0.91;100.00;99424.47;5064878;28;21057;-76
2022/12/10 08:39:17;;;;;;;28.73;25.60;;;;;;;0.96;100.00;99424.53;5074263;28;20222;-76
2022/12/10 08:41:44;;;;;;;31.33;26.20;;;;;;;0.97;100.00;99430.50;5051239;28;20197;-75
2022/12/10 08:44:11;;;;;;;27.30;23.60;;;;;;;0.97;100.00;99435.59;5071586;28;20666;-75
2022/12/10 08:46:36;;;;;;;29.70;25.23;;;;;;;1.01;100.00;99433.13;5069178;28;20632;-75
2022/12/10 08:49:01;;;;;;;27.83;23.33;;;;;;;1.00;100.00;99427.97;5051223;28;20292;-74
2022/12/10 08:51:27;;;;;;;28.40;25.00;;;;;;;0.99;100.00;99431.34;5064316;28;20189;-75
2022/12/10 08:53:53;;;;;;;27.50;24.33;;;;;;;1.01;100.00;99425.47;5066755;28;20297;-75
2022/12/10 08:56:19;;;;;;;26.93;24.03;;;;;;;1.04;100.00;99429.75;5062433;28;20198;-75
2022/12/10 08:58:44;;;;;;;30.33;25.47;;;;;;;1.03;100.00;99433.13;5073320;28;20611;-75
2022/12/10 09:01:12;;;;;;;29.10;23.67;;;;;;;1.08;100.00;99435.75;5077782;28;20185;-76
2022/12/10 09:03:38;;;;;;;27.63;24.53;;;;;;;1.11;100.00;99433.25;5078217;28;20216;-75
2022/12/10 09:06:10;;;;;;;27.27;23.67;;;;;;;1.10;100.00;99428.97;5075939;28;20184;-75
2022/12/10 09:08:37;;;;;;;27.97;24.87;;;;;;;1.13;100.00;99431.59;5048227;28;20841;-75
2022/12/10 09:11:06;;;;;;;28.73;25.03;;;;;;;1.11;100.00;99439.22;5067138;28;20275;-75
2022/12/10 09:13:31;;;;;;;26.50;23.07;;;;;;;1.13;100.00;99442.66;5067520;28;20229;-75
2022/12/10 09:15:56;;;;;;;30.03;25.13;;;;;;;1.16;100.00;99441.84;5066021;28;20206;-75
2022/12/10 09:18:22;;;;;;;27.60;23.33;;;;;;;1.19;100.00;99454.63;5066913;28;20243;-75
2022/12/10 09:20:47;;;;;;;28.17;25.13;;;;;;;1.17;100.00;99454.59;5065733;28;20189;-75
2022/12/10 09:23:13;;;;;;;29.20;24.60;;;;;;;1.20;100.00;99469.09;5065448;28;20213;-75
2022/12/10 09:25:38;;;;;;;31.37;24.67;;;;;;;1.27;100.00;99462.41;5065746;28;20225;-75
2022/12/10 09:28:03;;;;;;;28.30;25.20;;;;;;;1.29;100.00;99463.25;5069476;28;20216;-75
2022/12/10 09:30:29;;;;;;;28.07;24.80;;;;;;;1.32;100.00;99469.28;5075251;28;20796;-75
2022/12/10 09:32:54;;;;;;;29.30;26.17;;;;;;;1.34;100.00;99472.72;5064910;28;20339;-75
2022/12/10 09:35:19;;;;;;;28.77;25.67;;;;;;;1.35;100.00;99471.88;5064818;28;20185;-75
2022/12/10 09:37:44;;;;;;;28.60;25.13;;;;;;;1.29;100.00;99476.88;5065597;28;20192;-75
2022/12/10 09:40:29;;;;;;;27.20;23.93;;;;;;;1.30;100.00;99480.25;5065850;28;20186;-76
2022/12/10 09:43:15;;;;;;;26.17;22.93;;;;;;;1.33;100.00;99480.31;5065012;28;20206;-75
2022/12/10 09:46:06;;;;;;;29.20;25.30;;;;;;;1.30;100.00;99470.94;5044199;28;20194;-75
2022/12/10 09:49:07;;;;;;;27.83;23.70;;;;;;;1.30;100.00;99473.50;5065751;28;20190;-77
2022/12/10 09:51:36;;;;;;;27.73;24.17;;;;;;;1.27;100.00;99475.16;5082989;28;20181;-75
2022/12/10 09:54:12;;;;;;;29.10;24.60;;;;;;;1.31;100.00;99459.03;5045695;28;20201;-75
2022/12/10 09:56:39;;;;;;;29.20;24.67;;;;;;;1.40;100.00;99477.03;5061904;28;20181;-75
2022/12/10 09:59:23;;;;;;;26.13;22.93;;;;;;;1.48;100.00;99478.00;5062453;28;20255;-76
2022/12/10 10:02:01;;;;;;;26.43;23.63;;;;;;;1.55;100.00;99470.44;5055463;28;20198;-75
2022/12/10 10:04:28;;;;;;;23.97;21.37;;;;;;;1.63;100.00;99477.38;5053606;28;20327;-76
2022/12/10 10:06:54;;;;;;;26.40;23.20;;;;;;;1.66;100.00;99474.00;5062171;28;20190;-75
2022/12/10 10:09:20;;;;;;;25.30;22.57;;;;;;;1.68;100.00;99472.34;5047054;28;20217;-75
2022/12/10 10:11:46;;;;;;;24.47;21.93;;;;;;;1.69;100.00;99481.72;5049509;28;20201;-75
2022/12/10 10:14:28;;;;;;;24.57;21.83;;;;;;;1.70;100.00;99485.09;5034385;28;20190;-75
2022/12/10 10:17:00;;;;;;;24.03;21.43;;;;;;;1.61;100.00;99479.06;5056515;28;20262;-75
2022/12/10 10:19:30;;;;;;;25.93;23.13;;;;;;;1.56;100.00;99478.13;5052856;28;20612;-75
2022/12/10 10:21:55;;;;;;;24.90;22.20;;;;;;;1.49;100.00;99476.31;5073633;28;20550;-74
2022/12/10 10:24:25;;;;;;;24.73;22.03;;;;;;;1.45;100.00;99490.69;5054803;28;20185;-75
2022/12/10 10:26:57;;;;;;;23.33;20.93;;;;;;;1.47;100.00;99471.19;5058870;28;20242;-77
2022/12/10 10:29:26;;;;;;;26.23;22.63;;;;;;;1.44;100.00;99473.69;5037959;28;20659;-76
2022/12/10 10:32:20;;;;;;;23.17;20.67;;;;;;;1.54;100.00;99486.59;5036377;28;20970;-75
2022/12/10 10:34:52;;;;;;;23.53;21.03;;;;;;;1.53;100.00;99488.25;5067482;28;20171;-76
2022/12/10 10:37:30;;;;;;;23.37;20.07;;;;;;;1.57;100.00;99482.38;5092027;28;20166;-75
2022/12/10 10:39:57;;;;;;;23.83;21.33;;;;;;;1.58;100.00;99478.16;5071210;28;20966;-75
2022/12/10 10:42:36;;;;;;;23.60;21.20;;;;;;;1.55;100.00;99483.22;5052130;28;20341;-75
2022/12/10 10:45:04;;;;;;;23.60;21.13;;;;;;;1.57;100.00;99479.84;5055176;28;20178;-75
2022/12/10 10:47:36;;;;;;;23.13;20.57;;;;;;;1.64;100.00;99481.66;5054325;28;20743;-75
2022/12/10 10:50:04;;;;;;;21.77;19.57;;;;;;;1.75;100.00;99481.78;5061488;28;20773;-76
2022/12/10 10:52:35;;;;;;;22.20;20.00;;;;;;;1.78;100.00;99484.38;5054098;28;20204;-75
2022/12/10 10:55:00;;;;;;;23.47;21.07;;;;;;;1.74;100.00;99489.41;5050998;28;20197;-76
2022/12/10 10:57:33;;;;;;;22.53;20.13;;;;;;;1.71;100.00;99485.16;5059047;28;20193;-76
2022/12/10 11:00:17;;;;;;;22.67;20.33;;;;;;;1.73;100.00;99488.56;5060991;28;20181;-74
2022/12/10 11:02:42;;;;;;;23.83;20.97;;;;;;;1.81;100.00;99496.34;5054519;28;20211;-75
2022/12/10 11:05:27;;;;;;;22.00;19.80;;;;;;;1.79;100.00;99492.91;5059161;28;20186;-75
2022/12/10 11:08:07;;;;;;;22.77;20.37;;;;;;;1.76;100.00;99498.81;5048645;28;20675;-75
2022/12/10 11:10:32;;;;;;;22.17;19.87;;;;;;;1.75;100.00;99498.78;5051355;28;21014;-76
2022/12/10 11:13:04;;;;;;;23.43;21.03;;;;;;;1.79;100.00;99501.41;5077577;28;20213;-75
2022/12/10 11:15:33;;;;;;;22.50;20.20;;;;;;;1.78;100.00;99499.69;5065455;28;20231;-75
2022/12/10 11:17:58;;;;;;;22.23;19.87;;;;;;;1.84;100.00;99493.81;5068935;28;20181;-74
2022/12/10 11:20:30;;;;;;;22.77;20.30;;;;;;;1.90;100.00;99490.47;5066768;28;20654;-75
2022/12/10 11:22:59;;;;;;;24.43;20.87;;;;;;;1.95;100.00;99492.28;5050609;28;20227;-76
2022/12/10 11:25:36;;;;;;;22.93;20.53;;;;;;;1.98;100.00;99494.84;5049841;28;20194;-75
2022/12/10 11:28:23;;;;;;;21.50;19.20;;;;;;;2.11;100.00;99500.13;5057933;28;20325;-75
2022/12/10 11:31:33;;;;;;;21.27;19.13;;;;;;;2.16;100.00;99498.47;5055763;28;20211;-76
2022/12/10 11:34:17;;;;;;;21.63;19.43;;;;;;;2.13;100.00;99503.53;5029810;28;20210;-75